createdAt,value
2019-01-18T00:00:07.137Z,13.16
2019-01-18T00:02:33.788Z,13.17
2019-01-18T00:05:00.431Z,13.18
2019-01-18T00:07:27.081Z,13.14
2019-01-18T00:09:53.728Z,13.15
2019-01-18T00:12:20.375Z,13.15
2019-01-18T00:14:47.033Z,13.17
2019-01-18T00:17:13.721Z,13.14
2019-01-18T00:19:40.410Z,13.16
2019-01-18T00:22:07.060Z,13.15
2019-01-18T00:24:33.840Z,13.15
2019-01-18T00:27:00.482Z,13.15
2019-01-18T00:29:29.699Z,13.20
2019-01-18T00:31:55.677Z,13.22
2019-01-18T00:34:22.332Z,13.13
2019-01-18T00:36:49.071Z,13.14
2019-01-18T00:39:15.726Z,13.08
2019-01-18T00:41:42.374Z,13.03
2019-01-18T00:44:09.109Z,13.01
2019-01-18T00:46:35.752Z,13.00
2019-01-18T00:49:02.404Z,12.99
2019-01-18T00:51:29.053Z,12.82
2019-01-18T00:53:55.705Z,13.08
2019-01-18T00:56:22.396Z,13.25
2019-01-18T00:58:49.036Z,13.38
2019-01-18T01:01:15.685Z,13.39
2019-01-18T01:03:42.343Z,13.25
2019-01-18T01:06:08.994Z,13.21
2019-01-18T01:08:35.640Z,13.10
2019-01-18T01:11:02.290Z,13.05
2019-01-18T01:13:28.926Z,13.04
2019-01-18T01:15:55.577Z,13.01
2019-01-18T01:18:22.241Z,12.98
2019-01-18T01:20:48.883Z,13.02
2019-01-18T01:23:15.530Z,13.01
2019-01-18T01:25:42.177Z,13.01
2019-01-18T01:28:08.821Z,13.03
2019-01-18T01:30:35.533Z,13.00
2019-01-18T01:33:02.176Z,13.00
2019-01-18T01:35:28.835Z,12.99
2019-01-18T01:37:55.486Z,12.96
2019-01-18T01:40:22.177Z,12.98
2019-01-18T01:42:48.866Z,13.07
2019-01-18T01:45:15.504Z,13.05
2019-01-18T01:47:42.142Z,13.00
2019-01-18T01:50:08.797Z,13.00
2019-01-18T01:52:35.485Z,12.96
2019-01-18T01:55:02.134Z,12.91
2019-01-18T01:57:28.777Z,12.88
2019-01-18T01:59:55.481Z,12.87
2019-01-18T02:02:22.127Z,12.84
2019-01-18T02:04:48.779Z,12.86
2019-01-18T02:07:15.430Z,12.85
2019-01-18T02:09:42.119Z,12.87
2019-01-18T02:12:08.762Z,12.86
2019-01-18T02:14:35.414Z,12.84
2019-01-18T02:17:02.106Z,12.86
2019-01-18T02:19:28.806Z,12.83
2019-01-18T02:21:55.447Z,12.86
2019-01-18T02:24:22.129Z,12.86
2019-01-18T02:26:48.791Z,12.86
2019-01-18T02:29:15.441Z,12.86
2019-01-18T02:31:42.091Z,12.91
2019-01-18T02:34:08.789Z,12.86
2019-01-18T02:36:35.438Z,12.83
2019-01-18T02:39:02.082Z,12.80
2019-01-18T02:41:28.774Z,12.76
2019-01-18T02:43:55.410Z,12.76
2019-01-18T02:46:22.056Z,12.76
2019-01-18T02:48:48.718Z,12.73
2019-01-18T02:51:15.367Z,12.74
2019-01-18T02:53:42.018Z,12.68
2019-01-18T02:56:11.742Z,12.68
2019-01-18T02:58:38.388Z,12.72
2019-01-18T03:01:05.028Z,12.69
2019-01-18T03:03:31.724Z,12.71
2019-01-18T03:05:58.370Z,12.70
2019-01-18T03:08:25.057Z,12.70
2019-01-18T03:10:51.695Z,12.69
2019-01-18T03:13:18.405Z,12.68
2019-01-18T03:15:45.085Z,12.70
2019-01-18T03:18:11.731Z,12.68
2019-01-18T03:20:38.436Z,12.67
2019-01-18T03:23:05.064Z,12.65
2019-01-18T03:25:31.712Z,12.65
2019-01-18T03:27:58.364Z,12.63
2019-01-18T03:30:25.006Z,12.63
2019-01-18T03:32:51.656Z,12.63
2019-01-18T03:35:18.293Z,12.63
2019-01-18T03:37:44.955Z,12.60
2019-01-18T03:40:11.610Z,12.61
2019-01-18T03:42:38.303Z,12.63
2019-01-18T03:45:04.966Z,12.60
2019-01-18T03:47:31.598Z,12.63
2019-01-18T03:49:58.304Z,12.59
2019-01-18T03:52:24.942Z,12.59
2019-01-18T03:54:51.584Z,12.56
2019-01-18T03:57:18.238Z,12.55
2019-01-18T03:59:44.879Z,12.56
2019-01-18T04:02:11.579Z,12.58
2019-01-18T04:04:38.216Z,12.56
2019-01-18T04:07:05.026Z,12.56
2019-01-18T04:09:31.673Z,12.57
2019-01-18T04:11:58.320Z,13.28
2019-01-18T04:14:25.983Z,13.53
2019-01-18T04:16:51.647Z,13.50
2019-01-18T04:19:18.298Z,13.39
2019-01-18T04:21:45.001Z,13.20
2019-01-18T04:24:11.628Z,13.19
2019-01-18T04:26:38.264Z,13.13
2019-01-18T04:29:04.916Z,13.36
2019-01-18T04:31:31.567Z,13.56
2019-01-18T04:33:58.255Z,12.95
2019-01-18T04:36:24.928Z,12.69
2019-01-18T04:38:51.613Z,12.57
2019-01-18T04:41:18.252Z,12.51
2019-01-18T04:43:44.889Z,12.46
2019-01-18T04:46:11.546Z,12.46
2019-01-18T04:48:38.242Z,12.43
2019-01-18T04:51:04.888Z,12.36
2019-01-18T04:53:31.522Z,12.39
2019-01-18T04:55:58.178Z,12.41
2019-01-18T04:58:24.822Z,12.38
2019-01-18T05:00:51.533Z,12.32
2019-01-18T05:03:18.167Z,12.38
2019-01-18T05:05:44.802Z,12.47
2019-01-18T05:08:11.471Z,12.76
2019-01-18T05:10:38.112Z,12.72
2019-01-18T05:13:04.802Z,12.75
2019-01-18T05:15:31.448Z,12.71
2019-01-18T05:17:58.105Z,12.63
2019-01-18T05:20:24.755Z,12.61
2019-01-18T05:22:51.469Z,12.91
2019-01-18T05:25:18.103Z,12.72
2019-01-18T05:27:44.796Z,12.89
2019-01-18T05:30:11.514Z,12.78
2019-01-18T05:32:38.205Z,12.74
2019-01-18T05:35:04.837Z,12.72
2019-01-18T05:37:31.501Z,12.77
2019-01-18T05:39:58.196Z,12.84
2019-01-18T05:42:24.841Z,12.92
2019-01-18T05:44:51.530Z,12.92
2019-01-18T05:47:18.170Z,13.14
2019-01-18T05:49:44.820Z,13.31
2019-01-18T05:52:11.469Z,13.25
2019-01-18T05:54:38.108Z,13.21
2019-01-18T05:57:04.745Z,13.23
2019-01-18T05:59:31.401Z,13.21
2019-01-18T06:01:58.106Z,13.22
2019-01-18T06:04:24.753Z,13.33
2019-01-18T06:06:51.402Z,13.30
2019-01-18T06:09:18.045Z,13.36
2019-01-18T06:11:44.771Z,13.33
2019-01-18T06:14:11.405Z,13.27
2019-01-18T06:16:38.060Z,13.21
2019-01-18T06:19:04.704Z,13.16
2019-01-18T06:21:31.397Z,12.97
2019-01-18T06:23:58.038Z,13.05
2019-01-18T06:26:24.791Z,13.00
2019-01-18T06:28:51.454Z,12.95
2019-01-18T06:31:18.102Z,12.91
2019-01-18T06:33:45.459Z,12.97
2019-01-18T06:36:12.097Z,12.89
2019-01-18T06:38:38.749Z,12.97
2019-01-18T06:41:08.814Z,13.07
2019-01-18T06:43:35.513Z,12.97
2019-01-18T06:46:02.169Z,12.80
2019-01-18T06:48:28.810Z,12.85
2019-01-18T06:50:55.465Z,12.71
2019-01-18T06:53:22.115Z,12.74
2019-01-18T06:55:48.763Z,12.89
2019-01-18T06:58:15.413Z,12.87
2019-01-18T07:00:42.133Z,12.54
2019-01-18T07:03:08.827Z,12.78
2019-01-18T07:05:35.518Z,12.64
2019-01-18T07:08:02.505Z,12.83
2019-01-18T07:10:29.139Z,12.75
2019-01-18T07:12:55.788Z,12.88
2019-01-18T07:15:22.451Z,12.82
2019-01-18T07:17:49.171Z,12.76
2019-01-18T07:20:15.852Z,13.10
2019-01-18T07:22:42.530Z,12.98
2019-01-18T07:25:09.179Z,13.12
2019-01-18T07:27:36.885Z,12.93
2019-01-18T07:30:03.532Z,12.89
2019-01-18T07:32:30.201Z,12.94
2019-01-18T07:34:56.859Z,12.81
2019-01-18T07:37:23.526Z,12.83
2019-01-18T07:39:50.234Z,12.83
2019-01-18T07:42:16.872Z,12.78
2019-01-18T07:44:43.561Z,12.78
2019-01-18T07:47:10.269Z,12.88
2019-01-18T07:49:36.918Z,12.95
2019-01-18T07:52:03.610Z,13.37
2019-01-18T07:54:30.251Z,12.82
2019-01-18T07:56:56.978Z,13.04
2019-01-18T07:59:23.675Z,12.79
2019-01-18T08:01:50.327Z,12.96
2019-01-18T08:04:16.982Z,13.10
2019-01-18T08:06:43.796Z,12.95
2019-01-18T08:09:10.501Z,13.00
2019-01-18T08:11:37.147Z,12.85
2019-01-18T08:14:05.911Z,13.05
2019-01-18T08:16:32.572Z,13.10
2019-01-18T08:18:59.263Z,13.17
2019-01-18T08:21:25.908Z,12.86
2019-01-18T08:23:52.605Z,13.20
2019-01-18T08:26:19.250Z,13.34
2019-01-18T08:28:45.886Z,13.40
2019-01-18T08:31:12.543Z,13.59
2019-01-18T08:33:39.190Z,13.61
2019-01-18T08:36:05.837Z,13.68
2019-01-18T08:38:32.473Z,13.68
2019-01-18T08:40:59.141Z,13.71
2019-01-18T08:43:25.810Z,13.74
2019-01-18T08:45:53.026Z,13.79
2019-01-18T08:48:19.664Z,13.83
2019-01-18T08:50:46.379Z,13.87
2019-01-18T08:53:13.107Z,13.90
2019-01-18T08:55:39.803Z,13.91
2019-01-18T08:58:06.438Z,14.03
2019-01-18T09:00:33.198Z,14.14
2019-01-18T09:03:08.344Z,14.11
2019-01-18T09:05:35.067Z,14.24
2019-01-18T09:08:02.397Z,14.57
2019-01-18T09:10:29.216Z,14.63
2019-01-18T09:12:55.924Z,14.83
2019-01-18T09:15:22.622Z,14.97
2019-01-18T09:17:49.269Z,14.92
2019-01-18T09:20:15.995Z,14.89
2019-01-18T09:22:42.632Z,14.67
2019-01-18T09:25:09.405Z,14.48
2019-01-18T09:27:36.040Z,14.46
2019-01-18T09:30:02.684Z,14.63
2019-01-18T09:32:29.818Z,14.40
2019-01-18T09:34:56.475Z,14.34
2019-01-18T09:37:23.141Z,14.40
2019-01-18T09:39:49.791Z,14.66
2019-01-18T09:42:16.595Z,14.37
2019-01-18T09:44:43.276Z,14.46
2019-01-18T09:47:09.933Z,14.68
2019-01-18T09:49:36.606Z,14.76
2019-01-18T09:52:03.251Z,14.49
2019-01-18T09:54:29.903Z,14.85
2019-01-18T09:56:56.634Z,14.73
2019-01-18T09:59:23.284Z,14.75
2019-01-18T10:01:51.013Z,14.88
2019-01-18T10:04:17.701Z,14.59
2019-01-18T10:06:44.370Z,14.75
2019-01-18T10:09:13.851Z,14.68
2019-01-18T10:11:40.504Z,14.76
2019-01-18T10:14:07.144Z,14.70
2019-01-18T10:16:33.805Z,14.69
2019-01-18T10:19:00.472Z,14.67
2019-01-18T10:21:27.164Z,14.63
2019-01-18T10:23:53.821Z,14.63
2019-01-18T10:26:20.464Z,14.57
2019-01-18T10:28:47.125Z,14.51
2019-01-18T10:31:13.783Z,14.46
2019-01-18T10:33:40.426Z,14.48
2019-01-18T10:36:07.123Z,14.57
2019-01-18T10:38:33.801Z,14.54
2019-01-18T10:41:00.441Z,14.49
2019-01-18T10:43:27.148Z,14.54
2019-01-18T10:45:53.794Z,14.50
2019-01-18T10:48:20.454Z,14.54
2019-01-18T10:50:47.105Z,14.60
2019-01-18T10:53:13.753Z,14.67
2019-01-18T10:55:40.518Z,14.71
2019-01-18T10:58:10.028Z,14.86
2019-01-18T11:00:36.713Z,15.10
2019-01-18T11:03:03.509Z,14.63
2019-01-18T11:05:30.185Z,14.90
2019-01-18T11:07:56.879Z,15.22
2019-01-18T11:10:24.648Z,15.33
2019-01-18T11:12:51.381Z,15.41
2019-01-18T11:15:18.122Z,15.36
2019-01-18T11:17:44.789Z,15.60
2019-01-18T11:20:11.503Z,15.67
2019-01-18T11:22:43.297Z,15.71
2019-01-18T11:25:14.448Z,15.88
2019-01-18T11:27:39.762Z,15.92
2019-01-18T11:30:06.406Z,16.01
2019-01-18T11:32:33.191Z,15.90
2019-01-18T11:34:59.933Z,16.19
2019-01-18T11:37:28.274Z,16.07
2019-01-18T11:39:53.360Z,15.99
2019-01-18T11:42:19.988Z,16.14
2019-01-18T11:44:46.633Z,16.29
2019-01-18T11:47:13.296Z,16.22
2019-01-18T11:49:39.937Z,16.11
2019-01-18T11:52:06.590Z,16.17
2019-01-18T11:54:36.172Z,15.73
2019-01-18T11:57:01.101Z,16.09
2019-01-18T11:59:27.780Z,15.95
2019-01-18T12:01:54.529Z,16.26
2019-01-18T12:04:21.167Z,16.28
2019-01-18T12:06:47.967Z,16.12
2019-01-18T12:09:14.654Z,15.91
2019-01-18T12:11:41.435Z,16.50
2019-01-18T12:14:08.109Z,16.10
2019-01-18T12:16:34.768Z,16.05
2019-01-18T12:19:01.493Z,15.74
2019-01-18T12:21:28.101Z,16.11
2019-01-18T12:23:54.758Z,16.25
2019-01-18T12:26:21.400Z,16.05
2019-01-18T12:28:48.128Z,16.18
2019-01-18T12:31:14.777Z,16.14
2019-01-18T12:33:41.415Z,16.14
2019-01-18T12:36:08.084Z,16.21
2019-01-18T12:38:34.762Z,16.27
2019-01-18T12:41:01.457Z,16.16
2019-01-18T12:43:28.238Z,15.89
2019-01-18T12:45:54.877Z,16.13
2019-01-18T12:48:21.527Z,15.74
2019-01-18T12:50:48.197Z,16.05
2019-01-18T12:53:17.980Z,15.99
2019-01-18T12:55:44.683Z,16.22
2019-01-18T12:58:11.380Z,16.24
2019-01-18T13:00:38.032Z,15.97
2019-01-18T13:03:04.682Z,16.17
2019-01-18T13:05:31.338Z,16.15
2019-01-18T13:07:57.973Z,16.08
2019-01-18T13:10:24.730Z,16.09
2019-01-18T13:12:51.427Z,16.02
2019-01-18T13:15:18.069Z,16.06
2019-01-18T13:17:44.719Z,16.06
2019-01-18T13:20:11.437Z,16.09
2019-01-18T13:22:38.134Z,15.87
2019-01-18T13:25:04.802Z,16.03
2019-01-18T13:27:31.509Z,15.94
2019-01-18T13:29:58.363Z,16.20
2019-01-18T13:32:25.067Z,16.13
2019-01-18T13:34:52.504Z,15.86
2019-01-18T13:37:19.110Z,16.00
2019-01-18T13:39:45.756Z,16.19
2019-01-18T13:42:12.443Z,16.19
2019-01-18T13:44:43.589Z,16.29
2019-01-18T13:47:05.795Z,16.27
2019-01-18T13:49:32.449Z,16.31
2019-01-18T13:52:02.179Z,16.25
2019-01-18T13:54:28.839Z,16.47
2019-01-18T13:56:55.495Z,16.16
2019-01-18T13:59:22.835Z,15.94
2019-01-18T14:01:49.489Z,16.16
2019-01-18T14:04:16.186Z,16.03
2019-01-18T14:06:42.822Z,16.23
2019-01-18T14:09:09.478Z,16.49
2019-01-18T14:11:36.228Z,16.46
2019-01-18T14:14:02.879Z,16.39
2019-01-18T14:16:29.528Z,16.36
2019-01-18T14:18:56.179Z,16.29
2019-01-18T14:21:22.862Z,16.53
2019-01-18T14:23:49.515Z,16.54
2019-01-18T14:26:16.205Z,16.47
2019-01-18T14:28:43.896Z,16.49
2019-01-18T14:31:10.566Z,16.62
2019-01-18T14:33:37.207Z,16.13
2019-01-18T14:36:03.863Z,16.49
2019-01-18T14:38:30.512Z,16.27
2019-01-18T14:40:57.317Z,16.15
2019-01-18T14:43:23.945Z,16.38
2019-01-18T14:45:50.584Z,16.35
2019-01-18T14:48:17.250Z,16.45
2019-01-18T14:50:43.894Z,16.40
2019-01-18T14:53:10.550Z,16.70
2019-01-18T14:55:37.895Z,16.89
2019-01-18T14:58:04.586Z,16.88
2019-01-18T15:00:31.278Z,16.84
2019-01-18T15:03:02.303Z,17.00
2019-01-18T15:05:24.565Z,16.86
2019-01-18T15:07:51.202Z,17.02
2019-01-18T15:10:17.856Z,16.81
2019-01-18T15:12:44.501Z,16.80
2019-01-18T15:15:11.191Z,16.52
2019-01-18T15:17:37.836Z,16.92
2019-01-18T15:20:04.492Z,16.78
2019-01-18T15:22:31.145Z,17.00
2019-01-18T15:24:57.809Z,16.95
2019-01-18T15:27:24.481Z,16.97
2019-01-18T15:29:51.166Z,16.84
2019-01-18T15:32:17.921Z,16.92
2019-01-18T15:34:44.576Z,16.99
2019-01-18T15:37:11.213Z,16.95
2019-01-18T15:39:37.860Z,16.73
2019-01-18T15:42:04.530Z,16.90
2019-01-18T15:44:31.230Z,16.80
2019-01-18T15:46:59.935Z,16.74
2019-01-18T15:49:24.511Z,16.68
2019-01-18T15:51:51.168Z,16.77
2019-01-18T15:54:17.808Z,16.72
2019-01-18T15:56:44.505Z,16.70
2019-01-18T15:59:11.360Z,16.72
2019-01-18T16:01:38.015Z,16.62
2019-01-18T16:04:04.652Z,16.69
2019-01-18T16:06:31.315Z,16.54
2019-01-18T16:08:57.960Z,16.41
2019-01-18T16:11:27.638Z,16.47
2019-01-18T16:13:54.276Z,16.33
2019-01-18T16:16:20.958Z,16.44
2019-01-18T16:18:47.607Z,16.38
2019-01-18T16:21:14.256Z,16.29
2019-01-18T16:23:43.447Z,16.33
2019-01-18T16:26:10.090Z,16.29
2019-01-18T16:28:36.729Z,16.31
2019-01-18T16:31:03.376Z,16.38
2019-01-18T16:33:30.054Z,16.26
2019-01-18T16:35:56.706Z,16.26
2019-01-18T16:38:23.359Z,16.26
2019-01-18T16:40:50.040Z,16.22
2019-01-18T16:43:16.737Z,16.13
2019-01-18T16:45:43.402Z,16.30
2019-01-18T16:48:10.041Z,16.17
2019-01-18T16:50:36.704Z,16.21
2019-01-18T16:53:03.488Z,16.25
2019-01-18T16:55:30.109Z,16.26
2019-01-18T16:57:56.766Z,16.21
2019-01-18T17:00:23.425Z,16.15
2019-01-18T17:02:50.125Z,16.07
2019-01-18T17:05:16.775Z,16.12
2019-01-18T17:07:43.427Z,16.11
2019-01-18T17:10:10.080Z,16.11
2019-01-18T17:12:36.832Z,16.18
2019-01-18T17:15:03.514Z,16.33
2019-01-18T17:17:30.178Z,16.43
2019-01-18T17:19:56.888Z,16.49
2019-01-18T17:22:23.529Z,16.39
2019-01-18T17:24:50.167Z,16.20
2019-01-18T17:27:16.827Z,16.11
2019-01-18T17:29:43.555Z,16.01
2019-01-18T17:32:10.205Z,15.88
2019-01-18T17:34:36.900Z,15.83
2019-01-18T17:37:03.582Z,15.86
2019-01-18T17:39:30.262Z,15.93
2019-01-18T17:41:56.861Z,15.89
2019-01-18T17:44:23.509Z,15.98
2019-01-18T17:46:50.156Z,15.96
2019-01-18T17:49:16.843Z,15.98
2019-01-18T17:51:43.486Z,15.97
2019-01-18T17:54:10.144Z,15.98
2019-01-18T17:56:36.788Z,15.94
2019-01-18T17:59:03.425Z,15.93
2019-01-18T18:01:30.165Z,15.87
2019-01-18T18:03:56.866Z,15.92
2019-01-18T18:06:23.500Z,15.84
2019-01-18T18:08:50.154Z,15.82
2019-01-18T18:11:16.798Z,15.75
2019-01-18T18:13:43.454Z,15.68
2019-01-18T18:16:10.104Z,15.65
2019-01-18T18:18:36.739Z,15.63
2019-01-18T18:21:03.388Z,15.57
2019-01-18T18:23:30.021Z,15.54
2019-01-18T18:25:56.718Z,15.49
2019-01-18T18:28:23.356Z,15.50
2019-01-18T18:30:49.992Z,15.47
2019-01-18T18:33:16.636Z,15.46
2019-01-18T18:35:43.347Z,15.42
2019-01-18T18:38:09.999Z,15.43
2019-01-18T18:40:36.636Z,15.36
2019-01-18T18:43:03.305Z,15.33
2019-01-18T18:45:29.952Z,15.31
2019-01-18T18:47:56.640Z,15.28
2019-01-18T18:50:23.285Z,15.30
2019-01-18T18:52:49.948Z,15.28
2019-01-18T18:55:16.600Z,15.33
2019-01-18T18:57:43.241Z,15.28
2019-01-18T19:00:09.930Z,15.29
2019-01-18T19:02:36.558Z,15.25
2019-01-18T19:05:03.206Z,15.17
2019-01-18T19:07:29.850Z,15.25
2019-01-18T19:09:56.480Z,15.20
2019-01-18T19:12:23.131Z,15.15
2019-01-18T19:14:49.809Z,15.07
2019-01-18T19:17:16.453Z,15.12
2019-01-18T19:19:43.089Z,15.07
2019-01-18T19:22:09.771Z,14.95
2019-01-18T19:24:36.410Z,15.00
2019-01-18T19:27:03.057Z,15.01
2019-01-18T19:29:29.701Z,15.03
2019-01-18T19:31:57.656Z,14.97
2019-01-18T19:34:23.015Z,14.99
2019-01-18T19:36:49.661Z,14.97
2019-01-18T19:39:16.310Z,14.98
2019-01-18T19:41:42.954Z,14.97
2019-01-18T19:44:09.629Z,14.92
2019-01-18T19:46:36.265Z,14.93
2019-01-18T19:49:02.952Z,14.95
2019-01-18T19:51:29.590Z,14.92
2019-01-18T19:53:56.233Z,14.94
2019-01-18T19:56:22.922Z,14.92
2019-01-18T19:58:49.734Z,14.97
2019-01-18T20:01:16.378Z,14.92
2019-01-18T20:03:44.400Z,14.96
2019-01-18T20:06:09.685Z,14.95
2019-01-18T20:08:36.387Z,14.95
2019-01-18T20:11:03.036Z,14.96
2019-01-18T20:13:29.669Z,14.96
2019-01-18T20:15:56.311Z,14.92
2019-01-18T20:18:22.997Z,14.99
2019-01-18T20:20:49.638Z,14.95
2019-01-18T20:23:16.276Z,14.98
2019-01-18T20:25:42.912Z,14.98
2019-01-18T20:28:09.598Z,14.99
2019-01-18T20:30:36.235Z,14.98
2019-01-18T20:33:02.874Z,14.98
2019-01-18T20:35:29.536Z,15.02
2019-01-18T20:37:56.178Z,15.02
2019-01-18T20:40:22.841Z,15.03
2019-01-18T20:42:49.489Z,15.02
2019-01-18T20:45:16.421Z,14.99
2019-01-18T20:47:43.058Z,15.05
2019-01-18T20:50:09.714Z,15.03
2019-01-18T20:52:36.371Z,15.00
2019-01-18T20:55:03.044Z,15.04
2019-01-18T20:57:29.690Z,15.04
2019-01-18T20:59:56.341Z,15.04
2019-01-18T21:02:22.988Z,15.06
2019-01-18T21:04:49.632Z,15.05
2019-01-18T21:07:16.331Z,15.04
2019-01-18T21:09:42.987Z,15.04
2019-01-18T21:12:09.640Z,15.04
2019-01-18T21:14:36.280Z,15.07
2019-01-18T21:17:02.980Z,15.09
2019-01-18T21:19:29.618Z,15.04
2019-01-18T21:21:56.293Z,15.04
2019-01-18T21:24:22.939Z,15.08
2019-01-18T21:26:49.585Z,15.08
2019-01-18T21:29:16.232Z,15.05
2019-01-18T21:31:42.917Z,15.11
2019-01-18T21:34:09.555Z,15.08
2019-01-18T21:36:36.201Z,15.07
2019-01-18T21:39:02.881Z,15.05
2019-01-18T21:41:29.565Z,15.03
2019-01-18T21:43:56.249Z,15.09
2019-01-18T21:46:22.892Z,15.07
2019-01-18T21:48:49.535Z,15.09
2019-01-18T21:51:16.226Z,15.08
2019-01-18T21:53:42.873Z,15.13
2019-01-18T21:56:09.556Z,15.11
2019-01-18T21:58:36.189Z,15.11
2019-01-18T22:01:02.828Z,15.06
2019-01-18T22:03:29.496Z,15.10
2019-01-18T22:05:56.164Z,15.07
2019-01-18T22:08:22.804Z,15.06
2019-01-18T22:10:49.460Z,15.05
2019-01-18T22:13:16.095Z,15.08
2019-01-18T22:15:42.742Z,15.02
2019-01-18T22:18:09.381Z,15.02
2019-01-18T22:20:36.072Z,15.06
2019-01-18T22:23:02.716Z,15.05
2019-01-18T22:25:29.360Z,15.08
2019-01-18T22:27:56.015Z,15.02
2019-01-18T22:30:22.653Z,15.06
2019-01-18T22:32:49.305Z,15.05
2019-01-18T22:35:15.941Z,15.03
2019-01-18T22:37:42.627Z,15.01
2019-01-18T22:40:09.271Z,15.04
2019-01-18T22:42:35.908Z,15.04
2019-01-18T22:45:02.557Z,15.04
2019-01-18T22:47:29.192Z,15.00
2019-01-18T22:49:55.849Z,15.04
2019-01-18T22:52:22.488Z,15.03
2019-01-18T22:54:49.140Z,15.05
2019-01-18T22:57:15.780Z,15.00
2019-01-18T22:59:42.459Z,14.97
2019-01-18T23:02:09.109Z,15.01
2019-01-18T23:04:35.767Z,15.02
2019-01-18T23:07:02.454Z,15.00
2019-01-18T23:09:29.099Z,14.96
2019-01-18T23:11:55.731Z,15.01
2019-01-18T23:14:25.201Z,15.00
2019-01-18T23:16:51.852Z,14.99
2019-01-18T23:19:18.489Z,14.97
2019-01-18T23:21:46.977Z,15.00
2019-01-18T23:24:11.830Z,14.98
2019-01-18T23:26:38.460Z,15.02
2019-01-18T23:29:05.130Z,15.00
2019-01-18T23:31:31.825Z,14.99
2019-01-18T23:33:58.431Z,14.98
2019-01-18T23:36:25.070Z,14.96
2019-01-18T23:38:51.772Z,14.99
2019-01-18T23:41:18.421Z,14.97
2019-01-18T23:43:45.122Z,14.98
2019-01-18T23:46:11.804Z,15.01
2019-01-18T23:48:38.448Z,14.96
2019-01-18T23:51:05.086Z,15.00
2019-01-18T23:53:31.728Z,15.01
2019-01-18T23:55:58.368Z,15.00
2019-01-18T23:58:25.015Z,14.98
